Terminal Aerodrome Forecast
Issued by NWS

Current Version | Previous Version | Text Only | Print | Product List | Glossary Off
Versions: 1 2 3 4 5 6 7 8 9 10 11 12 13 14 15 16 17

000
FTUS41 KPBZ 021736
TAFMGW
TAF
KMGW 021736Z 0218/0318 28008KT P6SM OVC025
     FM021900 25009KT P6SM OVC050
     FM030900 27006KT P6SM OVC025=

USA.gov is the U.S. government's official web portal to all federal, state and local government web resources and services.